sensor_id;sensor_type;location;lat;lon;timestamp;pressure;altitude;pressure_sealevel;temperature;humidity
20624;BME280;10471;42.736;23.346;2024-03-23T00:54:02;95632.69;;;2.34;100.00
20624;BME280;10471;42.736;23.346;2024-03-23T00:56:29;95637.69;;;2.36;100.00
20624;BME280;10471;42.736;23.346;2024-03-23T00:58:54;95641.72;;;2.32;100.00
20624;BME280;10471;42.736;23.346;2024-03-23T01:01:19;95626.41;;;2.24;100.00
20624;BME280;10471;42.736;23.346;2024-03-23T01:03:45;95625.97;;;2.27;100.00
20624;BME280;10471;42.736;23.346;2024-03-23T01:06:10;95623.97;;;2.29;100.00
20624;BME280;10471;42.736;23.346;2024-03-23T01:08:35;95622.38;;;2.28;100.00
20624;BME280;10471;42.736;23.346;2024-03-23T01:11:01;95628.34;;;2.28;100.00
20624;BME280;10471;42.736;23.346;2024-03-23T01:13:28;95629.16;;;2.29;100.00
20624;BME280;10471;42.736;23.346;2024-03-23T01:15:55;95628.44;;;2.22;100.00
20624;BME280;10471;42.736;23.346;2024-03-23T01:18:21;95617.66;;;2.18;100.00
20624;BME280;10471;42.736;23.346;2024-03-23T01:20:47;95626.91;;;2.14;100.00
20624;BME280;10471;42.736;23.346;2024-03-23T01:23:13;95628.00;;;2.07;100.00
20624;BME280;10471;42.736;23.346;2024-03-23T01:25:38;95632.28;;;2.01;100.00
20624;BME280;10471;42.736;23.346;2024-03-23T01:28:04;95627.50;;;1.98;100.00
20624;BME280;10471;42.736;23.346;2024-03-23T01:30:31;95631.91;;;1.98;100.00
20624;BME280;10471;42.736;23.346;2024-03-23T01:32:57;95623.97;;;1.93;100.00
20624;BME280;10471;42.736;23.346;2024-03-23T01:35:22;95624.38;;;1.90;100.00
20624;BME280;10471;42.736;23.346;2024-03-23T01:37:48;95634.44;;;1.87;100.00
20624;BME280;10471;42.736;23.346;2024-03-23T01:40:13;95629.28;;;1.80;100.00
20624;BME280;10471;42.736;23.346;2024-03-23T01:42:39;95622.09;;;1.82;100.00
20624;BME280;10471;42.736;23.346;2024-03-23T01:45:08;95630.50;;;1.78;100.00
20624;BME280;10471;42.736;23.346;2024-03-23T01:47:35;95626.13;;;1.78;100.00
20624;BME280;10471;42.736;23.346;2024-03-23T01:50:00;95625.75;;;1.75;100.00
20624;BME280;10471;42.736;23.346;2024-03-23T01:52:26;95623.38;;;1.73;100.00
20624;BME280;10471;42.736;23.346;2024-03-23T01:54:52;95625.38;;;1.71;100.00
20624;BME280;10471;42.736;23.346;2024-03-23T01:57:19;95633.53;;;1.75;100.00
20624;BME280;10471;42.736;23.346;2024-03-23T01:59:46;95628.72;;;1.78;100.00
20624;BME280;10471;42.736;23.346;2024-03-23T02:02:12;95624.53;;;1.77;100.00
20624;BME280;10471;42.736;23.346;2024-03-23T02:04:37;95628.50;;;1.80;100.00
20624;BME280;10471;42.736;23.346;2024-03-23T02:07:02;95628.13;;;1.76;100.00
20624;BME280;10471;42.736;23.346;2024-03-23T02:09:30;95623.78;;;1.70;100.00
20624;BME280;10471;42.736;23.346;2024-03-23T02:11:57;95622.56;;;1.73;100.00
20624;BME280;10471;42.736;23.346;2024-03-23T02:14:22;95634.16;;;1.70;100.00
20624;BME280;10471;42.736;23.346;2024-03-23T02:16:47;95629.41;;;1.67;100.00
20624;BME280;10471;42.736;23.346;2024-03-23T02:19:13;95640.66;;;1.61;100.00
20624;BME280;10471;42.736;23.346;2024-03-23T02:21:38;95627.06;;;1.59;100.00
20624;BME280;10471;42.736;23.346;2024-03-23T02:24:04;95636.75;;;1.52;100.00
20624;BME280;10471;42.736;23.346;2024-03-23T02:26:29;95631.56;;;1.52;100.00
20624;BME280;10471;42.736;23.346;2024-03-23T02:28:54;95642.56;;;1.48;100.00
20624;BME280;10471;42.736;23.346;2024-03-23T02:31:20;95642.09;;;1.33;100.00
20624;BME280;10471;42.736;23.346;2024-03-23T02:33:45;95645.47;;;1.33;100.00
20624;BME280;10471;42.736;23.346;2024-03-23T02:36:11;95643.31;;;1.30;100.00
20624;BME280;10471;42.736;23.346;2024-03-23T02:38:36;95643.88;;;1.32;100.00
20624;BME280;10471;42.736;23.346;2024-03-23T02:41:05;95644.47;;;1.34;100.00
20624;BME280;10471;42.736;23.346;2024-03-23T02:43:31;95634.03;;;1.41;100.00
20624;BME280;10471;42.736;23.346;2024-03-23T02:45:56;95644.03;;;1.37;100.00
20624;BME280;10471;42.736;23.346;2024-03-23T02:48:22;95630.88;;;1.39;100.00
20624;BME280;10471;42.736;23.346;2024-03-23T02:50:47;95631.34;;;1.29;100.00
20624;BME280;10471;42.736;23.346;2024-03-23T02:53:12;95632.19;;;1.24;100.00
20624;BME280;10471;42.736;23.346;2024-03-23T02:55:38;95637.00;;;1.20;100.00
20624;BME280;10471;42.736;23.346;2024-03-23T02:58:03;95633.84;;;1.12;100.00
20624;BME280;10471;42.736;23.346;2024-03-23T03:00:29;95630.25;;;1.13;100.00
20624;BME280;10471;42.736;23.346;2024-03-23T03:02:54;95629.84;;;1.16;100.00
20624;BME280;10471;42.736;23.346;2024-03-23T03:05:20;95625.41;;;1.23;100.00
20624;BME280;10471;42.736;23.346;2024-03-23T03:07:46;95624.56;;;1.28;100.00
20624;BME280;10471;42.736;23.346;2024-03-23T03:10:11;95635.31;;;1.32;100.00
20624;BME280;10471;42.736;23.346;2024-03-23T03:12:37;95629.34;;;1.31;100.00
20624;BME280;10471;42.736;23.346;2024-03-23T03:15:03;95629.38;;;1.25;100.00
20624;BME280;10471;42.736;23.346;2024-03-23T03:17:30;95629.75;;;1.28;100.00
20624;BME280;10471;42.736;23.346;2024-03-23T03:19:55;95634.69;;;1.36;100.00
20624;BME280;10471;42.736;23.346;2024-03-23T03:22:22;95636.09;;;1.32;100.00
20624;BME280;10471;42.736;23.346;2024-03-23T03:24:47;95637.28;;;1.36;100.00
20624;BME280;10471;42.736;23.346;2024-03-23T03:27:13;95635.16;;;1.27;100.00
20624;BME280;10471;42.736;23.346;2024-03-23T03:29:38;95635.66;;;1.11;100.00
20624;BME280;10471;42.736;23.346;2024-03-23T03:32:03;95633.59;;;1.20;100.00
20624;BME280;10471;42.736;23.346;2024-03-23T03:34:29;95638.22;;;1.18;100.00
20624;BME280;10471;42.736;23.346;2024-03-23T03:36:56;95640.97;;;1.23;100.00
20624;BME280;10471;42.736;23.346;2024-03-23T03:39:21;95639.41;;;1.22;100.00
20624;BME280;10471;42.736;23.346;2024-03-23T03:41:48;95641.78;;;1.23;100.00
20624;BME280;10471;42.736;23.346;2024-03-23T03:44:13;95634.22;;;1.22;100.00
20624;BME280;10471;42.736;23.346;2024-03-23T03:46:39;95634.22;;;1.22;100.00
20624;BME280;10471;42.736;23.346;2024-03-23T03:49:04;95635.44;;;1.19;100.00
20624;BME280;10471;42.736;23.346;2024-03-23T03:51:30;95632.84;;;1.13;100.00
20624;BME280;10471;42.736;23.346;2024-03-23T03:53:56;95642.66;;;1.11;100.00
20624;BME280;10471;42.736;23.346;2024-03-23T03:56:21;95643.28;;;1.06;100.00
20624;BME280;10471;42.736;23.346;2024-03-23T03:58:48;95641.91;;;1.04;100.00
20624;BME280;10471;42.736;23.346;2024-03-23T04:01:13;95638.94;;;1.00;100.00
20624;BME280;10471;42.736;23.346;2024-03-23T04:03:38;95639.56;;;0.96;100.00
20624;BME280;10471;42.736;23.346;2024-03-23T04:06:11;95646.59;;;0.89;100.00
20624;BME280;10471;42.736;23.346;2024-03-23T04:08:36;95649.56;;;0.92;100.00
20624;BME280;10471;42.736;23.346;2024-03-23T04:11:02;95642.41;;;0.88;100.00
20624;BME280;10471;42.736;23.346;2024-03-23T04:13:27;95638.06;;;0.82;100.00
20624;BME280;10471;42.736;23.346;2024-03-23T04:15:56;95648.84;;;0.79;100.00
20624;BME280;10471;42.736;23.346;2024-03-23T04:18:22;95654.06;;;0.72;100.00
20624;BME280;10471;42.736;23.346;2024-03-23T04:20:51;95644.91;;;0.70;100.00
20624;BME280;10471;42.736;23.346;2024-03-23T04:23:17;95644.91;;;0.70;100.00
20624;BME280;10471;42.736;23.346;2024-03-23T04:25:42;95649.50;;;0.68;100.00
20624;BME280;10471;42.736;23.346;2024-03-23T04:28:08;95649.91;;;0.65;100.00
20624;BME280;10471;42.736;23.346;2024-03-23T04:30:33;95644.16;;;0.63;100.00
20624;BME280;10471;42.736;23.346;2024-03-23T04:32:59;95655.31;;;0.63;100.00
20624;BME280;10471;42.736;23.346;2024-03-23T04:35:26;95648.50;;;0.69;100.00
20624;BME280;10471;42.736;23.346;2024-03-23T04:37:52;95646.75;;;0.63;100.00
20624;BME280;10471;42.736;23.346;2024-03-23T04:40:18;95647.31;;;0.65;100.00
20624;BME280;10471;42.736;23.346;2024-03-23T04:42:43;95645.31;;;0.67;100.00
20624;BME280;10471;42.736;23.346;2024-03-23T04:45:09;95646.47;;;0.71;100.00
20624;BME280;10471;42.736;23.346;2024-03-23T04:47:36;95654.06;;;0.72;100.00
20624;BME280;10471;42.736;23.346;2024-03-23T04:50:02;95662.44;;;0.74;100.00
20624;BME280;10471;42.736;23.346;2024-03-23T04:52:28;95661.22;;;0.77;100.00
20624;BME280;10471;42.736;23.346;2024-03-23T04:54:54;95665.56;;;0.83;100.00
20624;BME280;10471;42.736;23.346;2024-03-23T04:57:19;95665.16;;;0.86;100.00
20624;BME280;10471;42.736;23.346;2024-03-23T04:59:45;95663.75;;;0.90;100.00
20624;BME280;10471;42.736;23.346;2024-03-23T05:02:10;95666.72;;;0.93;100.00
20624;BME280;10471;42.736;23.346;2024-03-23T05:04:35;95660.69;;;0.99;100.00
20624;BME280;10471;42.736;23.346;2024-03-23T05:07:02;95659.84;;;1.05;100.00
20624;BME280;10471;42.736;23.346;2024-03-23T05:09:27;95666.56;;;1.13;100.00
20624;BME280;10471;42.736;23.346;2024-03-23T05:11:55;95663.75;;;1.21;100.00
20624;BME280;10471;42.736;23.346;2024-03-23T05:14:21;95662.91;;;1.27;100.00
20624;BME280;10471;42.736;23.346;2024-03-23T05:16:46;95662.63;;;1.34;100.00
20624;BME280;10471;42.736;23.346;2024-03-23T05:19:12;95661.63;;;1.35;100.00
20624;BME280;10471;42.736;23.346;2024-03-23T05:21:37;95654.16;;;1.45;100.00
20624;BME280;10471;42.736;23.346;2024-03-23T05:24:02;95657.91;;;1.49;100.00
20624;BME280;10471;42.736;23.346;2024-03-23T05:26:28;95653.47;;;1.56;100.00
20624;BME280;10471;42.736;23.346;2024-03-23T05:28:54;95651.03;;;1.61;100.00
20624;BME280;10471;42.736;23.346;2024-03-23T05:31:30;95649.75;;;1.70;100.00
20624;BME280;10471;42.736;23.346;2024-03-23T05:33:56;95663.63;;;1.82;100.00
20624;BME280;10471;42.736;23.346;2024-03-23T05:36:21;95657.44;;;1.83;100.00
20624;BME280;10471;42.736;23.346;2024-03-23T05:38:48;95664.31;;;1.95;100.00
20624;BME280;10471;42.736;23.346;2024-03-23T05:41:14;95650.78;;;1.87;100.00
20624;BME280;10471;42.736;23.346;2024-03-23T05:43:40;95661.72;;;1.95;100.00
20624;BME280;10471;42.736;23.346;2024-03-23T05:46:05;95658.19;;;2.08;100.00
20624;BME280;10471;42.736;23.346;2024-03-23T05:48:31;95650.09;;;2.16;100.00
20624;BME280;10471;42.736;23.346;2024-03-23T05:50:56;95649.97;;;2.29;100.00
20624;BME280;10471;42.736;23.346;2024-03-23T05:53:23;95647.41;;;2.40;100.00
20624;BME280;10471;42.736;23.346;2024-03-23T05:55:50;95656.44;;;2.56;100.00
20624;BME280;10471;42.736;23.346;2024-03-23T05:58:16;95647.97;;;2.60;100.00
20624;BME280;10471;42.736;23.346;2024-03-23T06:00:42;95654.38;;;2.75;100.00
20624;BME280;10471;42.736;23.346;2024-03-23T06:03:08;95642.00;;;2.89;100.00
20624;BME280;10471;42.736;23.346;2024-03-23T06:05:35;95643.03;;;2.99;100.00
20624;BME280;10471;42.736;23.346;2024-03-23T06:08:00;95643.41;;;3.14;100.00
20624;BME280;10471;42.736;23.346;2024-03-23T06:10:25;95646.16;;;3.19;100.00
20624;BME280;10471;42.736;23.346;2024-03-23T06:12:51;95636.56;;;3.31;100.00
20624;BME280;10471;42.736;23.346;2024-03-23T06:15:19;95639.53;;;3.46;100.00
20624;BME280;10471;42.736;23.346;2024-03-23T06:17:44;95647.56;;;3.56;100.00
20624;BME280;10471;42.736;23.346;2024-03-23T06:20:10;95641.59;;;3.67;100.00
20624;BME280;10471;42.736;23.346;2024-03-23T06:22:36;95639.00;;;3.78;100.00
20624;BME280;10471;42.736;23.346;2024-03-23T06:25:01;95641.59;;;3.89;100.00
20624;BME280;10471;42.736;23.346;2024-03-23T06:27:27;95638.22;;;4.00;100.00
20624;BME280;10471;42.736;23.346;2024-03-23T06:29:52;95638.84;;;4.07;100.00
20624;BME280;10471;42.736;23.346;2024-03-23T06:32:17;95641.91;;;4.16;100.00
20624;BME280;10471;42.736;23.346;2024-03-23T06:34:43;95641.34;;;4.25;100.00
20624;BME280;10471;42.736;23.346;2024-03-23T06:37:10;95641.09;;;4.38;100.00
20624;BME280;10471;42.736;23.346;2024-03-23T06:39:38;95634.38;;;4.53;100.00
20624;BME280;10471;42.736;23.346;2024-03-23T06:42:04;95637.97;;;4.64;100.00
20624;BME280;10471;42.736;23.346;2024-03-23T06:44:30;95641.91;;;4.78;100.00
20624;BME280;10471;42.736;23.346;2024-03-23T06:46:56;95634.81;;;4.90;100.00
20624;BME280;10471;42.736;23.346;2024-03-23T06:49:24;95632.94;;;5.02;100.00
20624;BME280;10471;42.736;23.346;2024-03-23T06:51:50;95637.31;;;5.13;100.00
20624;BME280;10471;42.736;23.346;2024-03-23T06:54:19;95638.50;;;5.21;100.00
20624;BME280;10471;42.736;23.346;2024-03-23T06:56:44;95635.06;;;5.32;100.00
20624;BME280;10471;42.736;23.346;2024-03-23T06:59:10;95634.28;;;5.48;100.00
20624;BME280;10471;42.736;23.346;2024-03-23T07:01:35;95629.53;;;5.62;100.00
20624;BME280;10471;42.736;23.346;2024-03-23T07:04:01;95631.03;;;5.74;100.00
20624;BME280;10471;42.736;23.346;2024-03-23T07:06:26;95627.25;;;5.82;100.00
20624;BME280;10471;42.736;23.346;2024-03-23T07:08:52;95624.00;;;5.91;100.00
20624;BME280;10471;42.736;23.346;2024-03-23T07:11:21;95628.41;;;6.07;100.00
20624;BME280;10471;42.736;23.346;2024-03-23T07:13:49;95620.78;;;6.22;100.00
20624;BME280;10471;42.736;23.346;2024-03-23T07:16:15;95616.47;;;6.32;100.00
20624;BME280;10471;42.736;23.346;2024-03-23T07:18:41;95614.06;;;6.47;100.00
20624;BME280;10471;42.736;23.346;2024-03-23T07:21:06;95618.59;;;6.56;100.00
20624;BME280;10471;42.736;23.346;2024-03-23T07:23:32;95610.94;;;6.71;100.00
20624;BME280;10471;42.736;23.346;2024-03-23T07:26:01;95603.09;;;6.71;100.00
20624;BME280;10471;42.736;23.346;2024-03-23T07:28:27;95610.28;;;6.86;100.00
20624;BME280;10471;42.736;23.346;2024-03-23T07:31:04;95606.22;;;6.95;100.00
20624;BME280;10471;42.736;23.346;2024-03-23T07:33:30;95602.47;;;7.12;100.00
20624;BME280;10471;42.736;23.346;2024-03-23T07:35:56;95606.72;;;7.18;100.00
20624;BME280;10471;42.736;23.346;2024-03-23T07:38:21;95606.34;;;7.36;100.00
20624;BME280;10471;42.736;23.346;2024-03-23T07:40:47;95608.09;;;7.57;100.00
20624;BME280;10471;42.736;23.346;2024-03-23T07:43:15;95597.72;;;7.72;100.00
20624;BME280;10471;42.736;23.346;2024-03-23T07:45:40;95597.31;;;7.84;100.00
20624;BME280;10471;42.736;23.346;2024-03-23T07:48:06;95601.31;;;7.97;100.00
20624;BME280;10471;42.736;23.346;2024-03-23T07:50:31;95591.16;;;8.10;100.00
20624;BME280;10471;42.736;23.346;2024-03-23T07:52:57;95591.03;;;8.27;100.00
20624;BME280;10471;42.736;23.346;2024-03-23T07:55:22;95588.72;;;8.40;100.00
20624;BME280;10471;42.736;23.346;2024-03-23T07:57:47;95589.31;;;8.52;100.00
20624;BME280;10471;42.736;23.346;2024-03-23T08:00:13;95588.31;;;8.63;100.00
20624;BME280;10471;42.736;23.346;2024-03-23T08:02:39;95587.06;;;8.80;100.00
20624;BME280;10471;42.736;23.346;2024-03-23T08:05:04;95582.34;;;8.92;100.00
20624;BME280;10471;42.736;23.346;2024-03-23T08:07:30;95586.34;;;9.05;100.00
20624;BME280;10471;42.736;23.346;2024-03-23T08:09:55;95582.91;;;9.14;100.00
20624;BME280;10471;42.736;23.346;2024-03-23T08:12:20;95586.34;;;9.19;100.00
20624;BME280;10471;42.736;23.346;2024-03-23T08:14:46;95582.13;;;9.13;100.00
20624;BME280;10471;42.736;23.346;2024-03-23T08:17:11;95584.75;;;9.09;100.00
20624;BME280;10471;42.736;23.346;2024-03-23T08:19:36;95580.03;;;9.20;100.00
20624;BME280;10471;42.736;23.346;2024-03-23T08:22:02;95582.69;;;9.30;100.00
20624;BME280;10471;42.736;23.346;2024-03-23T08:24:27;95574.81;;;9.45;100.00
20624;BME280;10471;42.736;23.346;2024-03-23T08:26:54;95571.66;;;9.43;100.00
20624;BME280;10471;42.736;23.346;2024-03-23T08:29:19;95576.91;;;9.43;100.00
20624;BME280;10471;42.736;23.346;2024-03-23T08:31:45;95570.59;;;9.44;100.00
20624;BME280;10471;42.736;23.346;2024-03-23T08:34:10;95569.00;;;9.53;100.00
20624;BME280;10471;42.736;23.346;2024-03-23T08:36:36;95558.75;;;9.67;100.00
20624;BME280;10471;42.736;23.346;2024-03-23T08:39:01;95555.31;;;9.86;100.00
20624;BME280;10471;42.736;23.346;2024-03-23T08:41:27;95555.88;;;9.98;100.00
20624;BME280;10471;42.736;23.346;2024-03-23T08:43:52;95553.19;;;10.18;100.00
20624;BME280;10471;42.736;23.346;2024-03-23T08:46:17;95549.94;;;10.36;100.00
20624;BME280;10471;42.736;23.346;2024-03-23T08:48:44;95543.03;;;10.54;100.00
20624;BME280;10471;42.736;23.346;2024-03-23T08:51:15;95544.81;;;10.69;97.29
20624;BME280;10471;42.736;23.346;2024-03-23T08:53:41;95543.47;;;10.71;95.60
20624;BME280;10471;42.736;23.346;2024-03-23T08:56:07;95544.56;;;10.60;93.93
20624;BME280;10471;42.736;23.346;2024-03-23T08:58:33;95535.13;;;10.59;99.97
20624;BME280;10471;42.736;23.346;2024-03-23T09:01:04;95527.91;;;10.75;100.00
20624;BME280;10471;42.736;23.346;2024-03-23T09:03:30;95520.94;;;10.99;99.22
20624;BME280;10471;42.736;23.346;2024-03-23T09:05:56;95513.66;;;11.19;97.19
20624;BME280;10471;42.736;23.346;2024-03-23T09:08:23;95508.53;;;11.32;93.63
20624;BME280;10471;42.736;23.346;2024-03-23T09:10:48;95502.84;;;11.49;93.47
20624;BME280;10471;42.736;23.346;2024-03-23T09:13:14;95502.34;;;11.52;88.56
20624;BME280;10471;42.736;23.346;2024-03-23T09:15:47;95491.13;;;11.65;89.84
20624;BME280;10471;42.736;23.346;2024-03-23T09:18:13;95494.25;;;11.72;87.72
20624;BME280;10471;42.736;23.346;2024-03-23T09:20:38;95500.47;;;11.80;86.74
20624;BME280;10471;42.736;23.346;2024-03-23T09:23:04;95490.41;;;11.87;84.13
20624;BME280;10471;42.736;23.346;2024-03-23T09:25:29;95488.47;;;11.93;83.89
20624;BME280;10471;42.736;23.346;2024-03-23T09:27:55;95483.06;;;12.08;87.03
20624;BME280;10471;42.736;23.346;2024-03-23T09:30:20;95473.31;;;12.03;82.11
20624;BME280;10471;42.736;23.346;2024-03-23T09:32:47;95474.31;;;12.07;80.88
20624;BME280;10471;42.736;23.346;2024-03-23T09:35:13;95468.31;;;12.25;85.86
20624;BME280;10471;42.736;23.346;2024-03-23T09:37:38;95478.06;;;12.48;86.54
20624;BME280;10471;42.736;23.346;2024-03-23T09:40:10;95461.13;;;12.49;85.04
20624;BME280;10471;42.736;23.346;2024-03-23T09:42:35;95451.31;;;12.73;86.82
20624;BME280;10471;42.736;23.346;2024-03-23T09:45:01;95442.81;;;12.94;85.57
20624;BME280;10471;42.736;23.346;2024-03-23T09:47:27;95437.41;;;13.17;82.55
20624;BME280;10471;42.736;23.346;2024-03-23T09:49:53;95440.41;;;13.29;79.17
20624;BME280;10471;42.736;23.346;2024-03-23T09:52:19;95430.13;;;13.41;76.44
20624;BME280;10471;42.736;23.346;2024-03-23T09:54:45;95432.59;;;13.51;76.39
20624;BME280;10471;42.736;23.346;2024-03-23T09:57:10;95430.88;;;13.60;76.03
20624;BME280;10471;42.736;23.346;2024-03-23T09:59:35;95434.00;;;13.62;71.60
20624;BME280;10471;42.736;23.346;2024-03-23T10:02:01;95426.38;;;13.74;69.67
20624;BME280;10471;42.736;23.346;2024-03-23T10:04:37;95416.72;;;13.65;68.88
20624;BME280;10471;42.736;23.346;2024-03-23T10:07:18;95414.69;;;13.75;69.14
20624;BME280;10471;42.736;23.346;2024-03-23T10:09:44;95402.75;;;13.91;71.12
20624;BME280;10471;42.736;23.346;2024-03-23T10:12:10;95406.00;;;14.15;73.70
20624;BME280;10471;42.736;23.346;2024-03-23T10:14:37;95402.34;;;14.38;68.56
20624;BME280;10471;42.736;23.346;2024-03-23T10:17:13;95395.25;;;14.46;67.29
20624;BME280;10471;42.736;23.346;2024-03-23T10:19:40;95396.59;;;14.57;61.64
20624;BME280;10471;42.736;23.346;2024-03-23T10:22:06;95394.72;;;14.58;60.46
20624;BME280;10471;42.736;23.346;2024-03-23T10:24:31;95395.91;;;14.52;62.28
20624;BME280;10471;42.736;23.346;2024-03-23T10:26:58;95386.69;;;14.49;60.40
20624;BME280;10471;42.736;23.346;2024-03-23T10:29:23;95380.81;;;14.52;61.41
20624;BME280;10471;42.736;23.346;2024-03-23T10:31:51;95380.75;;;14.66;60.03
20624;BME280;10471;42.736;23.346;2024-03-23T10:34:16;95367.22;;;14.89;59.45
20624;BME280;10471;42.736;23.346;2024-03-23T10:36:42;95370.00;;;15.06;59.16
20624;BME280;10471;42.736;23.346;2024-03-23T10:39:09;95367.09;;;15.16;56.05
20624;BME280;10471;42.736;23.346;2024-03-23T10:41:36;95355.94;;;15.27;57.20
20624;BME280;10471;42.736;23.346;2024-03-23T10:44:02;95349.78;;;15.49;55.62
20624;BME280;10471;42.736;23.346;2024-03-23T10:46:27;95346.59;;;15.69;55.04
20624;BME280;10471;42.736;23.346;2024-03-23T10:48:53;95338.53;;;15.90;55.03
20624;BME280;10471;42.736;23.346;2024-03-23T10:51:19;95332.63;;;15.93;51.87
20624;BME280;10471;42.736;23.346;2024-03-23T10:53:44;95324.78;;;15.88;51.21
20624;BME280;10471;42.736;23.346;2024-03-23T10:56:12;95319.34;;;15.93;50.94
20624;BME280;10471;42.736;23.346;2024-03-23T10:58:41;95313.53;;;15.91;51.14
20624;BME280;10471;42.736;23.346;2024-03-23T11:01:10;95313.19;;;15.84;49.05
20624;BME280;10471;42.736;23.346;2024-03-23T11:03:37;95300.44;;;16.03;49.60
20624;BME280;10471;42.736;23.346;2024-03-23T11:06:06;95294.97;;;16.17;48.38
20624;BME280;10471;42.736;23.346;2024-03-23T11:11:34;95281.06;;;16.79;45.92
20624;BME280;10471;42.736;23.346;2024-03-23T11:14:00;95274.16;;;16.95;46.13
20624;BME280;10471;42.736;23.346;2024-03-23T11:16:26;95273.06;;;16.96;46.38
20624;BME280;10471;42.736;23.346;2024-03-23T11:21:59;95255.78;;;17.10;45.63
20624;BME280;10471;42.736;23.346;2024-03-23T11:24:25;95252.78;;;17.28;45.62
20624;BME280;10471;42.736;23.346;2024-03-23T11:26:51;95257.31;;;17.28;44.01
20624;BME280;10471;42.736;23.346;2024-03-23T11:29:17;95244.88;;;17.40;42.86
20624;BME280;10471;42.736;23.346;2024-03-23T11:31:50;95238.94;;;17.43;43.07
20624;BME280;10471;42.736;23.346;2024-03-23T11:34:16;95238.47;;;17.41;43.27
20624;BME280;10471;42.736;23.346;2024-03-23T11:36:43;95231.59;;;17.32;42.62
20624;BME280;10471;42.736;23.346;2024-03-23T11:39:16;95227.09;;;17.53;43.47
20624;BME280;10471;42.736;23.346;2024-03-23T11:41:52;95222.31;;;17.95;42.24
20624;BME280;10471;42.736;23.346;2024-03-23T11:44:19;95209.41;;;18.46;42.25
20624;BME280;10471;42.736;23.346;2024-03-23T11:46:46;95205.56;;;18.68;40.98
20624;BME280;10471;42.736;23.346;2024-03-23T11:49:28;95202.41;;;18.86;39.54
20624;BME280;10471;42.736;23.346;2024-03-23T11:51:57;95191.81;;;19.10;40.52
20624;BME280;10471;42.736;23.346;2024-03-23T11:54:26;95192.50;;;19.31;39.23
20624;BME280;10471;42.736;23.346;2024-03-23T11:57:03;95186.69;;;19.41;40.45
20624;BME280;10471;42.736;23.346;2024-03-23T11:59:36;95181.88;;;19.34;39.19
20624;BME280;10471;42.736;23.346;2024-03-23T12:02:07;95167.75;;;19.22;39.44
20624;BME280;10471;42.736;23.346;2024-03-23T12:04:33;95174.66;;;19.23;39.38
20624;BME280;10471;42.736;23.346;2024-03-23T12:07:11;95167.63;;;18.10;40.37
20624;BME280;10471;42.736;23.346;2024-03-23T12:09:37;95158.31;;;18.68;41.24
20624;BME280;10471;42.736;23.346;2024-03-23T12:12:18;95158.47;;;18.51;40.16
20624;BME280;10471;42.736;23.346;2024-03-23T12:15:01;95152.63;;;18.17;39.22
20624;BME280;10471;42.736;23.346;2024-03-23T12:17:27;95152.06;;;18.76;39.19
20624;BME280;10471;42.736;23.346;2024-03-23T12:19:52;95146.38;;;19.22;38.93
20624;BME280;10471;42.736;23.346;2024-03-23T12:22:21;95139.56;;;19.48;38.04
20624;BME280;10471;42.736;23.346;2024-03-23T12:24:47;95127.13;;;19.79;37.37
20624;BME280;10471;42.736;23.346;2024-03-23T12:27:13;95133.09;;;20.12;37.71
20624;BME280;10471;42.736;23.346;2024-03-23T12:29:39;95124.91;;;20.48;37.16
20624;BME280;10471;42.736;23.346;2024-03-23T12:32:06;95128.72;;;20.47;35.52
20624;BME280;10471;42.736;23.346;2024-03-23T12:34:32;95123.19;;;20.40;35.79
20624;BME280;10471;42.736;23.346;2024-03-23T12:36:57;95119.38;;;20.41;36.07
20624;BME280;10471;42.736;23.346;2024-03-23T12:39:23;95108.53;;;20.65;35.76
20624;BME280;10471;42.736;23.346;2024-03-23T12:41:49;95107.09;;;20.83;35.72
20624;BME280;10471;42.736;23.346;2024-03-23T12:44:14;95104.25;;;20.76;35.84
20624;BME280;10471;42.736;23.346;2024-03-23T12:46:41;95100.09;;;20.94;35.03
20624;BME280;10471;42.736;23.346;2024-03-23T12:49:06;95100.72;;;21.03;34.33
20624;BME280;10471;42.736;23.346;2024-03-23T12:51:32;95091.38;;;20.97;34.58
20624;BME280;10471;42.736;23.346;2024-03-23T12:53:58;95086.81;;;21.12;35.53
20624;BME280;10471;42.736;23.346;2024-03-23T12:56:23;95075.31;;;21.46;34.63
20624;BME280;10471;42.736;23.346;2024-03-23T12:58:49;95073.13;;;21.86;34.60
20624;BME280;10471;42.736;23.346;2024-03-23T13:01:19;95067.00;;;21.85;33.64
20624;BME280;10471;42.736;23.346;2024-03-23T13:03:48;95061.78;;;21.92;33.60
20624;BME280;10471;42.736;23.346;2024-03-23T13:06:14;95055.03;;;22.02;33.51
20624;BME280;10471;42.736;23.346;2024-03-23T13:08:39;95055.75;;;21.99;34.24
20624;BME280;10471;42.736;23.346;2024-03-23T13:11:08;95052.69;;;21.63;33.06
20624;BME280;10471;42.736;23.346;2024-03-23T13:13:35;95052.53;;;21.90;34.57
20624;BME280;10471;42.736;23.346;2024-03-23T13:16:01;95046.16;;;21.98;32.93
20624;BME280;10471;42.736;23.346;2024-03-23T13:18:28;95051.41;;;21.22;31.43
20624;BME280;10471;42.736;23.346;2024-03-23T13:20:54;95040.16;;;21.51;32.01
20624;BME280;10471;42.736;23.346;2024-03-23T13:23:19;95042.50;;;21.18;31.21
20624;BME280;10471;42.736;23.346;2024-03-23T13:25:55;95030.25;;;21.71;31.98
20624;BME280;10471;42.736;23.346;2024-03-23T13:28:22;95028.22;;;21.83;31.14
20624;BME280;10471;42.736;23.346;2024-03-23T13:30:51;95032.16;;;21.70;30.58
20624;BME280;10471;42.736;23.346;2024-03-23T13:33:17;95021.84;;;21.53;28.82
20624;BME280;10471;42.736;23.346;2024-03-23T13:35:55;95022.78;;;21.45;28.32
20624;BME280;10471;42.736;23.346;2024-03-23T13:38:21;95019.41;;;21.48;28.97
20624;BME280;10471;42.736;23.346;2024-03-23T13:40:53;95019.09;;;21.69;28.35
20624;BME280;10471;42.736;23.346;2024-03-23T13:43:19;95018.19;;;21.99;29.23
20624;BME280;10471;42.736;23.346;2024-03-23T13:45:47;95009.75;;;22.00;27.74